createdAt,value
2017-05-05T00:01:58.073Z,12.09
2017-05-05T00:04:25.703Z,12.15
2017-05-05T00:06:53.412Z,12.10
2017-05-05T00:09:20.932Z,12.20
2017-05-05T00:11:48.489Z,11.99
2017-05-05T00:14:16.019Z,12.05
2017-05-05T00:16:43.854Z,12.09
2017-05-05T00:19:11.391Z,12.09
2017-05-05T00:21:38.915Z,12.08
2017-05-05T00:24:06.467Z,12.07
2017-05-05T00:26:33.995Z,12.06
2017-05-05T00:29:01.535Z,12.01
2017-05-05T00:31:29.061Z,12.19
2017-05-05T00:33:56.985Z,11.95
2017-05-05T00:36:24.530Z,11.92
2017-05-05T00:38:52.084Z,11.82
2017-05-05T00:41:19.996Z,11.76
2017-05-05T00:43:47.551Z,11.62
2017-05-05T00:46:15.096Z,11.48
2017-05-05T00:48:42.631Z,11.66
2017-05-05T00:51:10.501Z,11.67
2017-05-05T00:53:38.013Z,11.55
2017-05-05T00:56:05.534Z,11.48
2017-05-05T00:58:33.088Z,11.70
2017-05-05T01:01:00.608Z,11.65
2017-05-05T01:03:28.192Z,11.75
2017-05-05T01:05:55.712Z,11.81
2017-05-05T01:08:23.535Z,11.75
2017-05-05T01:10:51.089Z,11.51
2017-05-05T01:13:18.683Z,11.75
2017-05-05T01:15:46.316Z,11.48
2017-05-05T01:18:13.895Z,11.70
2017-05-05T01:20:41.719Z,11.65
2017-05-05T01:23:09.240Z,11.84
2017-05-05T01:25:36.797Z,11.69
2017-05-05T01:28:04.351Z,11.71
2017-05-05T01:30:31.876Z,11.82
2017-05-05T01:32:59.444Z,11.68
2017-05-05T01:35:26.956Z,11.65
2017-05-05T01:37:54.770Z,11.61
2017-05-05T01:40:22.359Z,11.42
2017-05-05T01:42:49.872Z,11.46
2017-05-05T01:45:17.444Z,11.55
2017-05-05T01:47:44.975Z,11.61
2017-05-05T01:50:12.599Z,11.72
2017-05-05T01:52:40.171Z,11.50
2017-05-05T01:55:07.767Z,11.70
2017-05-05T01:57:35.382Z,11.73
2017-05-05T02:00:02.975Z,11.61
2017-05-05T02:02:30.923Z,11.69
2017-05-05T02:04:58.447Z,11.65
2017-05-05T02:07:26.001Z,11.57
2017-05-05T02:09:53.573Z,11.70
2017-05-05T02:12:21.091Z,11.68
2017-05-05T02:14:48.624Z,11.61
2017-05-05T02:17:16.179Z,11.56
2017-05-05T02:19:43.696Z,11.51
2017-05-05T02:22:11.247Z,11.58
2017-05-05T02:24:38.780Z,11.71
2017-05-05T02:27:06.712Z,11.77
2017-05-05T02:29:34.223Z,11.62
2017-05-05T02:32:01.769Z,11.80
2017-05-05T02:34:29.322Z,11.68
2017-05-05T02:36:57.075Z,11.69
2017-05-05T02:39:24.596Z,11.45
2017-05-05T02:41:52.104Z,11.44
2017-05-05T02:44:19.647Z,11.56
2017-05-05T02:46:47.167Z,11.80
2017-05-05T02:49:15.052Z,11.69
2017-05-05T02:51:42.572Z,11.67
2017-05-05T02:54:10.099Z,11.66
2017-05-05T02:56:37.655Z,11.58
2017-05-05T02:59:05.187Z,11.50
2017-05-05T03:01:32.698Z,11.62
2017-05-05T03:04:00.274Z,11.70
2017-05-05T03:06:27.789Z,11.69
2017-05-05T03:08:55.427Z,11.67
2017-05-05T03:11:23.004Z,11.79
2017-05-05T03:13:50.559Z,11.61
2017-05-05T03:16:18.211Z,11.64
2017-05-05T03:18:45.833Z,11.41
2017-05-05T03:21:13.368Z,11.49
2017-05-05T03:23:40.895Z,11.42
2017-05-05T03:26:08.448Z,11.39
2017-05-05T03:28:35.980Z,11.33
2017-05-05T03:31:03.535Z,11.31
2017-05-05T03:33:31.063Z,11.23
2017-05-05T03:35:58.607Z,11.29
2017-05-05T03:38:26.156Z,11.17
2017-05-05T03:40:53.699Z,11.39
2017-05-05T03:43:21.219Z,11.45
2017-05-05T03:45:48.784Z,11.25
2017-05-05T03:48:16.296Z,11.16
2017-05-05T03:50:43.855Z,11.40
2017-05-05T03:53:11.371Z,11.36
2017-05-05T03:55:38.989Z,11.08
2017-05-05T03:58:06.511Z,11.10
2017-05-05T04:00:34.237Z,11.08
2017-05-05T04:03:01.752Z,10.98
2017-05-05T04:05:29.283Z,10.84
2017-05-05T04:07:56.829Z,10.91
2017-05-05T04:10:24.346Z,11.15
2017-05-05T04:12:51.887Z,11.12
2017-05-05T04:15:19.414Z,10.93
2017-05-05T04:17:47.029Z,10.93
2017-05-05T04:20:14.577Z,10.98
2017-05-05T04:22:42.152Z,11.16
2017-05-05T04:25:09.673Z,11.10
2017-05-05T04:27:37.223Z,11.04
2017-05-05T04:30:04.746Z,10.86
2017-05-05T04:32:32.376Z,10.92
2017-05-05T04:34:59.907Z,10.99
2017-05-05T04:37:27.478Z,10.93
2017-05-05T04:39:55.007Z,10.91
2017-05-05T04:42:22.859Z,10.99
2017-05-05T04:44:50.471Z,11.10
2017-05-05T04:47:18.075Z,11.22
2017-05-05T04:49:45.656Z,11.08
2017-05-05T04:52:13.275Z,11.23
2017-05-05T04:54:41.155Z,11.05
2017-05-05T04:57:08.675Z,11.00
2017-05-05T04:59:36.201Z,11.03
2017-05-05T05:02:03.799Z,10.97
2017-05-05T05:04:31.327Z,10.91
2017-05-05T05:06:58.910Z,11.00
2017-05-05T05:09:26.436Z,11.09
2017-05-05T05:11:53.973Z,10.98
2017-05-05T05:14:21.571Z,10.89
2017-05-05T05:16:49.125Z,10.88
2017-05-05T05:19:16.767Z,10.81
2017-05-05T05:21:44.368Z,10.99
2017-05-05T05:24:12.287Z,11.17
2017-05-05T05:26:39.831Z,10.86
2017-05-05T05:29:07.353Z,11.01
2017-05-05T05:31:34.920Z,10.92
2017-05-05T05:34:02.595Z,11.18
2017-05-05T05:36:30.124Z,11.17
2017-05-05T05:38:57.675Z,11.22
2017-05-05T05:41:25.231Z,11.06
2017-05-05T05:43:52.754Z,11.20
2017-05-05T05:46:20.311Z,11.12
2017-05-05T05:48:47.868Z,11.32
2017-05-05T05:51:15.596Z,11.23
2017-05-05T05:53:43.119Z,11.05
2017-05-05T05:56:10.703Z,11.09
2017-05-05T05:58:38.271Z,11.35
2017-05-05T06:01:05.803Z,11.23
2017-05-05T06:03:33.434Z,11.28
2017-05-05T06:06:00.996Z,11.35
2017-05-05T06:08:28.601Z,11.39
2017-05-05T06:10:56.125Z,11.23
2017-05-05T06:13:23.696Z,11.40
2017-05-05T06:15:51.235Z,11.33
2017-05-05T06:18:18.803Z,11.37
2017-05-05T06:20:46.332Z,11.18
2017-05-05T06:23:14.060Z,11.24
2017-05-05T06:25:41.679Z,11.24
2017-05-05T06:28:09.304Z,11.25
2017-05-05T06:30:36.878Z,11.22
2017-05-05T06:33:04.411Z,11.37
2017-05-05T06:35:32.021Z,11.36
2017-05-05T06:37:59.567Z,11.54
2017-05-05T06:40:27.428Z,11.54
2017-05-05T06:42:54.958Z,11.62
2017-05-05T06:45:22.551Z,11.93
2017-05-05T06:47:50.122Z,11.75
2017-05-05T06:50:17.645Z,11.58
2017-05-05T06:52:45.217Z,11.62
2017-05-05T06:55:13.383Z,11.68
2017-05-05T06:57:41.356Z,11.79
2017-05-05T07:00:08.896Z,11.94
2017-05-05T07:02:39.209Z,11.70
2017-05-05T07:05:06.932Z,11.97
2017-05-05T07:07:34.455Z,12.03
2017-05-05T07:10:02.011Z,11.99
2017-05-05T07:12:29.528Z,11.85
2017-05-05T07:14:57.636Z,11.99
2017-05-05T07:17:25.159Z,11.99
2017-05-05T07:19:52.687Z,12.00
2017-05-05T07:22:20.249Z,12.23
2017-05-05T07:24:47.770Z,12.22
2017-05-05T07:27:15.398Z,12.39
2017-05-05T07:29:42.929Z,12.38
2017-05-05T07:32:10.569Z,12.28
2017-05-05T07:34:38.112Z,12.29
2017-05-05T07:37:05.703Z,12.28
2017-05-05T07:39:33.277Z,12.47
2017-05-05T07:42:00.840Z,12.38
2017-05-05T07:44:28.400Z,12.34
2017-05-05T07:46:55.906Z,12.84
2017-05-05T07:49:23.475Z,12.93
2017-05-05T07:51:51.003Z,12.75
2017-05-05T07:54:18.991Z,12.54
2017-05-05T07:56:46.528Z,12.24
2017-05-05T07:59:14.055Z,12.28
2017-05-05T08:01:41.634Z,12.43
2017-05-05T08:04:09.239Z,12.65
2017-05-05T08:06:36.840Z,12.72
2017-05-05T08:09:04.384Z,12.85
2017-05-05T08:11:31.945Z,12.80
2017-05-05T08:13:59.471Z,12.54
2017-05-05T08:16:27.256Z,12.60
2017-05-05T08:18:54.774Z,12.67
2017-05-05T08:21:22.313Z,12.84
2017-05-05T08:23:49.888Z,12.94
2017-05-05T08:26:17.432Z,12.95
2017-05-05T08:28:45.081Z,13.21
2017-05-05T08:31:12.652Z,12.87
2017-05-05T08:33:40.520Z,13.15
2017-05-05T08:36:08.048Z,13.32
2017-05-05T08:38:35.574Z,13.37
2017-05-05T08:41:03.132Z,13.28
2017-05-05T08:43:30.655Z,13.41
2017-05-05T08:45:58.254Z,13.40
2017-05-05T08:48:25.787Z,13.72
2017-05-05T08:50:53.576Z,13.68
2017-05-05T08:53:21.092Z,13.68
2017-05-05T08:55:48.617Z,13.54
2017-05-05T08:58:16.259Z,13.70
2017-05-05T09:00:43.804Z,13.63
2017-05-05T09:03:11.357Z,13.38
2017-05-05T09:05:38.900Z,13.29
2017-05-05T09:08:06.665Z,13.37
2017-05-05T09:10:34.249Z,13.65
2017-05-05T09:13:01.894Z,13.34
2017-05-05T09:15:29.548Z,13.68
2017-05-05T09:17:57.086Z,13.56
2017-05-05T09:20:24.846Z,13.06
2017-05-05T09:22:52.382Z,13.01
2017-05-05T09:25:23.817Z,13.23
2017-05-05T09:27:51.402Z,13.38
2017-05-05T09:30:20.146Z,13.43
2017-05-05T09:32:47.987Z,13.57
2017-05-05T09:35:16.911Z,13.60
2017-05-05T09:37:44.691Z,13.75
2017-05-05T09:40:12.230Z,13.92
2017-05-05T09:42:39.779Z,13.93
2017-05-05T09:45:07.370Z,13.91
2017-05-05T09:47:34.960Z,14.30
2017-05-05T09:50:02.621Z,14.35
2017-05-05T09:52:30.162Z,14.38
2017-05-05T09:54:57.693Z,14.25
2017-05-05T09:57:25.283Z,14.25
2017-05-05T09:59:52.808Z,14.41
2017-05-05T10:02:20.482Z,14.53
2017-05-05T10:04:48.069Z,14.07
2017-05-05T10:07:15.619Z,14.26
2017-05-05T10:09:43.237Z,14.18
2017-05-05T10:12:10.863Z,14.32
2017-05-05T10:14:38.957Z,14.42
2017-05-05T10:17:06.542Z,14.83
2017-05-05T10:19:34.084Z,14.80
2017-05-05T10:22:01.654Z,14.67
2017-05-05T10:24:29.189Z,14.26
2017-05-05T10:26:56.892Z,14.41
2017-05-05T10:29:24.462Z,14.69
2017-05-05T10:31:52.083Z,15.00
2017-05-05T10:34:19.644Z,15.09
2017-05-05T10:36:47.183Z,14.97
2017-05-05T10:39:14.761Z,15.01
2017-05-05T10:41:42.294Z,15.02
2017-05-05T10:44:10.098Z,15.10
2017-05-05T10:46:37.668Z,15.29
2017-05-05T10:49:05.195Z,15.13
2017-05-05T10:51:32.755Z,15.12
2017-05-05T10:54:00.279Z,15.32
2017-05-05T10:56:27.970Z,15.49
2017-05-05T10:58:55.508Z,15.59
2017-05-05T11:01:23.026Z,15.59
2017-05-05T11:03:50.597Z,15.55
2017-05-05T11:06:18.147Z,15.60
2017-05-05T11:08:45.944Z,15.14
2017-05-05T11:11:13.503Z,15.26
2017-05-05T11:13:41.098Z,15.44
2017-05-05T11:16:08.673Z,15.71
2017-05-05T11:18:36.269Z,15.60
2017-05-05T11:21:03.837Z,15.50
2017-05-05T11:23:31.358Z,15.23
2017-05-05T11:25:58.927Z,15.37
2017-05-05T11:28:26.439Z,15.31
2017-05-05T11:30:53.997Z,15.15
2017-05-05T11:33:21.511Z,15.13
2017-05-05T11:35:49.373Z,15.21
2017-05-05T11:38:16.915Z,15.13
2017-05-05T11:40:44.462Z,14.90
2017-05-05T11:43:12.023Z,14.89
2017-05-05T11:45:39.554Z,14.88
2017-05-05T11:48:07.253Z,14.80
2017-05-05T11:50:34.796Z,14.93
2017-05-05T11:53:02.332Z,14.78
2017-05-05T11:55:29.891Z,14.76
2017-05-05T11:57:57.396Z,14.70
2017-05-05T12:00:24.976Z,14.79
2017-05-05T12:02:52.513Z,14.92
2017-05-05T12:05:20.104Z,14.66
2017-05-05T12:07:47.786Z,14.65
2017-05-05T12:10:15.323Z,14.79
2017-05-05T12:12:42.852Z,14.63
2017-05-05T12:15:10.872Z,14.89
2017-05-05T12:17:38.399Z,14.68
2017-05-05T12:20:05.994Z,14.61
2017-05-05T12:22:33.578Z,14.64
2017-05-05T12:25:01.109Z,14.51
2017-05-05T12:27:28.819Z,14.53
2017-05-05T12:29:56.372Z,14.62
2017-05-05T12:32:24.707Z,14.45
2017-05-05T12:34:52.275Z,14.61
2017-05-05T12:37:19.805Z,14.44
2017-05-05T12:39:47.508Z,14.39
2017-05-05T12:42:15.036Z,14.34
2017-05-05T12:44:42.587Z,14.21
2017-05-05T12:47:10.162Z,14.20
2017-05-05T12:49:38.012Z,14.12
2017-05-05T12:52:05.545Z,14.15
2017-05-05T12:54:33.159Z,14.14
2017-05-05T12:57:00.796Z,14.28
2017-05-05T12:59:28.399Z,14.10
2017-05-05T13:01:55.960Z,14.44
2017-05-05T13:04:23.496Z,14.27
2017-05-05T13:06:51.073Z,14.27
2017-05-05T13:09:18.595Z,14.36
2017-05-05T13:11:46.440Z,14.32
2017-05-05T13:14:13.958Z,14.31
2017-05-05T13:16:41.517Z,14.37
2017-05-05T13:19:09.092Z,14.41
2017-05-05T13:21:36.608Z,14.24
2017-05-05T13:24:04.182Z,14.30
2017-05-05T13:26:31.704Z,14.35
2017-05-05T13:28:59.268Z,14.48
2017-05-05T13:31:26.804Z,14.28
2017-05-05T13:33:54.373Z,14.21
2017-05-05T13:36:22.024Z,14.21
2017-05-05T13:38:50.020Z,14.43
2017-05-05T13:41:17.596Z,14.54
2017-05-05T13:43:45.139Z,14.51
2017-05-05T13:46:12.771Z,14.32
2017-05-05T13:48:40.396Z,14.37
2017-05-05T13:51:07.941Z,14.42
2017-05-05T13:53:35.476Z,14.39
2017-05-05T13:56:03.419Z,14.33
2017-05-05T13:58:30.980Z,14.19
2017-05-05T14:00:58.515Z,14.41
2017-05-05T14:03:26.076Z,14.30
2017-05-05T14:05:53.643Z,14.28
2017-05-05T14:08:21.307Z,14.06
2017-05-05T14:10:48.833Z,14.08
2017-05-05T14:13:16.759Z,13.98
2017-05-05T14:15:44.307Z,14.14
2017-05-05T14:18:11.868Z,14.24
2017-05-05T14:20:39.432Z,14.11
2017-05-05T14:23:06.980Z,14.05
2017-05-05T14:25:34.560Z,14.21
2017-05-05T14:28:02.113Z,14.29
2017-05-05T14:30:29.996Z,14.61
2017-05-05T14:32:57.606Z,14.41
2017-05-05T14:35:25.153Z,14.65
2017-05-05T14:37:52.727Z,14.53
2017-05-05T14:40:20.283Z,14.57
2017-05-05T14:42:47.872Z,14.70
2017-05-05T14:45:15.406Z,14.77
2017-05-05T14:47:43.307Z,14.80
2017-05-05T14:50:10.838Z,15.10
2017-05-05T14:52:38.390Z,15.31
2017-05-05T14:55:06.012Z,15.49
2017-05-05T14:57:33.677Z,15.47
2017-05-05T15:00:01.251Z,15.31
2017-05-05T15:02:28.780Z,15.30
2017-05-05T15:04:56.451Z,15.31
2017-05-05T15:07:24.005Z,15.11
2017-05-05T15:09:51.596Z,14.81
2017-05-05T15:12:19.156Z,14.73
2017-05-05T15:14:46.715Z,15.10
2017-05-05T15:17:14.278Z,14.86
2017-05-05T15:19:41.880Z,14.78
2017-05-05T15:22:09.399Z,15.06
2017-05-05T15:24:37.414Z,15.06
2017-05-05T15:27:05.022Z,15.11
2017-05-05T15:29:32.559Z,15.28
2017-05-05T15:32:00.220Z,15.14
2017-05-05T15:34:27.758Z,15.15
2017-05-05T15:36:55.715Z,15.03
2017-05-05T15:39:23.319Z,15.13
2017-05-05T15:41:50.873Z,15.13
2017-05-05T15:44:18.449Z,15.14
2017-05-05T15:46:46.087Z,15.24
2017-05-05T15:49:13.661Z,15.31
2017-05-05T15:51:41.203Z,15.31
2017-05-05T15:54:09.149Z,15.47
2017-05-05T15:56:36.687Z,15.35
2017-05-05T15:59:04.308Z,15.20
2017-05-05T16:01:31.990Z,15.25
2017-05-05T16:03:59.542Z,15.30
2017-05-05T16:06:27.098Z,15.41
2017-05-05T16:08:54.968Z,15.59
2017-05-05T16:11:22.515Z,15.45
2017-05-05T16:13:50.056Z,15.34
2017-05-05T16:16:17.669Z,15.35
2017-05-05T16:18:45.560Z,15.35
2017-05-05T16:21:13.095Z,15.36
2017-05-05T16:23:40.632Z,16.34
2017-05-05T16:26:08.318Z,16.65
2017-05-05T16:28:35.886Z,16.80
2017-05-05T16:31:03.428Z,16.87
2017-05-05T16:33:31.107Z,16.85
2017-05-05T16:35:58.704Z,16.94
2017-05-05T16:38:26.276Z,17.15
2017-05-05T16:40:53.904Z,17.38
2017-05-05T16:43:21.449Z,17.52
2017-05-05T16:45:48.976Z,17.21
2017-05-05T16:48:16.667Z,17.25
2017-05-05T16:50:44.214Z,17.40
2017-05-05T16:53:11.773Z,17.29
2017-05-05T16:55:39.364Z,17.64
2017-05-05T16:58:06.928Z,17.56
2017-05-05T17:00:34.785Z,17.79
2017-05-05T17:03:02.361Z,17.79
2017-05-05T17:05:29.894Z,17.88
2017-05-05T17:07:57.475Z,17.96
2017-05-05T17:10:25.007Z,17.99
2017-05-05T17:12:52.882Z,17.56
2017-05-05T17:15:20.412Z,17.54
2017-05-05T17:17:47.967Z,17.32
2017-05-05T17:20:15.494Z,17.00
2017-05-05T17:22:43.026Z,17.10
2017-05-05T17:25:10.608Z,17.02
2017-05-05T17:27:38.162Z,16.97
2017-05-05T17:30:05.704Z,16.84
2017-05-05T17:32:33.266Z,16.95
2017-05-05T17:35:00.804Z,16.97
2017-05-05T17:37:28.438Z,16.78
2017-05-05T17:39:56.290Z,16.78
2017-05-05T17:42:23.827Z,17.00
2017-05-05T17:44:51.384Z,16.86
2017-05-05T17:47:18.966Z,16.39
2017-05-05T17:49:46.495Z,17.00
2017-05-05T17:52:14.087Z,16.96
2017-05-05T17:54:41.658Z,16.44
2017-05-05T17:57:09.220Z,16.11
2017-05-05T17:59:36.795Z,15.77
2017-05-05T18:02:04.370Z,15.66
2017-05-05T18:04:31.943Z,15.61
2017-05-05T18:06:59.517Z,15.27
2017-05-05T18:09:27.392Z,15.36
2017-05-05T18:11:54.947Z,15.05
2017-05-05T18:14:22.497Z,15.12
2017-05-05T18:16:50.085Z,14.95
2017-05-05T18:19:17.652Z,14.93
2017-05-05T18:21:45.204Z,14.97
2017-05-05T18:24:12.762Z,14.98
2017-05-05T18:26:40.340Z,14.79
2017-05-05T18:29:07.917Z,14.64
2017-05-05T18:31:35.524Z,14.51
2017-05-05T18:34:03.095Z,14.51
2017-05-05T18:36:30.654Z,14.57
2017-05-05T18:38:58.212Z,14.64
2017-05-05T18:41:25.736Z,14.49
2017-05-05T18:43:53.592Z,14.35
2017-05-05T18:46:21.141Z,14.32
2017-05-05T18:48:48.714Z,14.15
2017-05-05T18:51:16.292Z,14.02
2017-05-05T18:53:43.810Z,14.07
2017-05-05T18:56:11.799Z,13.95
2017-05-05T18:58:39.331Z,13.93
2017-05-05T19:01:06.857Z,13.90
2017-05-05T19:03:34.584Z,13.86
2017-05-05T19:06:02.106Z,13.89
2017-05-05T19:08:29.633Z,13.91
2017-05-05T19:10:57.189Z,13.89
2017-05-05T19:13:24.735Z,13.65
2017-05-05T19:15:52.280Z,13.59
2017-05-05T19:18:19.796Z,13.73
2017-05-05T19:20:47.371Z,13.63
2017-05-05T19:23:14.930Z,13.71
2017-05-05T19:25:42.466Z,13.35
2017-05-05T19:28:10.148Z,13.32
2017-05-05T19:30:37.700Z,13.37
2017-05-05T19:33:05.550Z,13.38
2017-05-05T19:35:33.085Z,13.40
2017-05-05T19:38:00.664Z,13.34
2017-05-05T19:40:28.239Z,13.36
2017-05-05T19:42:55.752Z,13.25
2017-05-05T19:45:23.620Z,13.22
2017-05-05T19:47:51.165Z,13.22
2017-05-05T19:50:18.709Z,13.06
2017-05-05T19:52:46.524Z,12.74
2017-05-05T19:55:14.056Z,12.79
2017-05-05T19:57:41.586Z,12.83
2017-05-05T20:00:09.141Z,12.86
2017-05-05T20:02:36.714Z,12.84
2017-05-05T20:05:04.540Z,12.84
2017-05-05T20:07:32.079Z,12.67
2017-05-05T20:09:59.677Z,12.73
2017-05-05T20:12:27.302Z,12.58
2017-05-05T20:14:55.357Z,12.51
2017-05-05T20:17:22.875Z,12.38
2017-05-05T20:19:50.415Z,12.41
2017-05-05T20:22:17.971Z,12.42
2017-05-05T20:24:45.812Z,12.39
2017-05-05T20:27:13.358Z,12.26
2017-05-05T20:29:40.887Z,12.34
2017-05-05T20:32:08.450Z,12.09
2017-05-05T20:34:35.983Z,12.22
2017-05-05T20:37:03.588Z,12.21
2017-05-05T20:39:31.119Z,12.08
2017-05-05T20:41:58.686Z,12.04
2017-05-05T20:44:26.521Z,11.97
2017-05-05T20:46:54.047Z,12.02
2017-05-05T20:49:21.559Z,12.05
2017-05-05T20:51:49.120Z,11.91
2017-05-05T20:54:16.653Z,11.85
2017-05-05T20:56:44.203Z,11.80
2017-05-05T20:59:11.722Z,11.69
2017-05-05T21:01:39.351Z,11.66
2017-05-05T21:04:06.863Z,11.65
2017-05-05T21:06:34.392Z,11.48
2017-05-05T21:09:02.359Z,11.47
2017-05-05T21:11:29.893Z,11.34
2017-05-05T21:13:57.423Z,11.33
2017-05-05T21:16:24.992Z,11.40
2017-05-05T21:18:52.540Z,11.42
2017-05-05T21:21:20.097Z,11.40
2017-05-05T21:23:47.624Z,11.36
2017-05-05T21:26:15.204Z,11.34
2017-05-05T21:28:42.724Z,11.30
2017-05-05T21:31:10.241Z,11.33
2017-05-05T21:33:37.819Z,11.40
2017-05-05T21:36:05.381Z,11.51
2017-05-05T21:38:33.300Z,11.28
2017-05-05T21:41:00.836Z,11.09
2017-05-05T21:43:28.359Z,11.08
2017-05-05T21:45:55.949Z,11.11
2017-05-05T21:48:23.477Z,11.11
2017-05-05T21:50:51.028Z,11.11
2017-05-05T21:53:18.551Z,11.08
2017-05-05T21:55:46.131Z,11.04
2017-05-05T21:58:13.660Z,10.96
2017-05-05T22:00:41.177Z,10.95
2017-05-05T22:03:08.719Z,10.96
2017-05-05T22:05:36.271Z,10.91
2017-05-05T22:08:03.822Z,10.92
2017-05-05T22:10:31.361Z,10.98
2017-05-05T22:12:59.001Z,10.97
2017-05-05T22:15:26.532Z,11.04
2017-05-05T22:17:54.261Z,11.09
2017-05-05T22:20:22.020Z,11.18
2017-05-05T22:22:49.582Z,11.13
2017-05-05T22:25:17.143Z,11.12
2017-05-05T22:27:44.690Z,11.15
2017-05-05T22:30:12.411Z,11.13
2017-05-05T22:32:40.009Z,11.08
2017-05-05T22:35:07.732Z,10.98
2017-05-05T22:37:35.310Z,10.98
2017-05-05T22:40:02.831Z,10.90
2017-05-05T22:42:30.633Z,10.95
2017-05-05T22:44:58.159Z,11.00
2017-05-05T22:47:25.882Z,11.11
2017-05-05T22:49:53.453Z,10.91
2017-05-05T22:52:21.086Z,10.93
2017-05-05T22:54:48.648Z,11.03
2017-05-05T22:57:16.156Z,10.83
2017-05-05T22:59:43.733Z,10.95
2017-05-05T23:02:11.259Z,11.00
2017-05-05T23:04:38.815Z,10.94
2017-05-05T23:07:06.327Z,10.87
2017-05-05T23:09:34.011Z,10.76
2017-05-05T23:12:01.526Z,10.80
2017-05-05T23:14:29.044Z,10.86
2017-05-05T23:16:56.694Z,10.78
2017-05-05T23:19:24.221Z,10.75
2017-05-05T23:21:51.784Z,10.65
2017-05-05T23:24:19.297Z,10.62
2017-05-05T23:26:46.868Z,10.73
2017-05-05T23:29:14.387Z,10.57
2017-05-05T23:31:42.156Z,10.64
2017-05-05T23:34:09.716Z,10.60
2017-05-05T23:36:37.242Z,10.56
2017-05-05T23:39:04.793Z,10.49
2017-05-05T23:41:32.296Z,10.47
2017-05-05T23:43:59.925Z,10.45
2017-05-05T23:46:27.457Z,10.57
2017-05-05T23:48:55.173Z,10.58
2017-05-05T23:51:22.690Z,10.32
2017-05-05T23:53:50.252Z,10.31
2017-05-05T23:56:17.792Z,10.43
2017-05-05T23:58:45.310Z,10.32
